sensor_id;sensor_type;location;lat;lon;timestamp;P1;durP1;ratioP1;P2;durP2;ratioP2
35646;SDS011;28680;45.642;13.756;2022-07-23T00:00:30;19.55;;;15.68;;
35646;SDS011;28680;45.642;13.756;2022-07-23T00:02:56;17.73;;;15.05;;
35646;SDS011;28680;45.642;13.756;2022-07-23T00:05:22;20.23;;;14.45;;
35646;SDS011;28680;45.642;13.756;2022-07-23T00:07:48;21.40;;;15.55;;
35646;SDS011;28680;45.642;13.756;2022-07-23T00:10:14;25.08;;;16.55;;
35646;SDS011;28680;45.642;13.756;2022-07-23T00:12:40;18.90;;;14.70;;
35646;SDS011;28680;45.642;13.756;2022-07-23T00:15:06;19.67;;;15.07;;
35646;SDS011;28680;45.642;13.756;2022-07-23T00:17:33;19.85;;;15.55;;
35646;SDS011;28680;45.642;13.756;2022-07-23T00:19:59;24.73;;;15.57;;
35646;SDS011;28680;45.642;13.756;2022-07-23T00:22:25;22.42;;;15.05;;
35646;SDS011;28680;45.642;13.756;2022-07-23T00:24:54;22.35;;;15.43;;
35646;SDS011;28680;45.642;13.756;2022-07-23T00:27:20;24.52;;;15.88;;
35646;SDS011;28680;45.642;13.756;2022-07-23T00:29:46;20.35;;;15.20;;
35646;SDS011;28680;45.642;13.756;2022-07-23T00:32:12;20.40;;;14.93;;
35646;SDS011;28680;45.642;13.756;2022-07-23T00:34:38;24.48;;;16.80;;
35646;SDS011;28680;45.642;13.756;2022-07-23T00:37:04;19.92;;;14.98;;
35646;SDS011;28680;45.642;13.756;2022-07-23T00:39:30;24.45;;;15.93;;
35646;SDS011;28680;45.642;13.756;2022-07-23T00:41:56;22.55;;;14.35;;
35646;SDS011;28680;45.642;13.756;2022-07-23T00:44:23;22.42;;;15.52;;
35646;SDS011;28680;45.642;13.756;2022-07-23T00:46:52;24.55;;;15.10;;
35646;SDS011;28680;45.642;13.756;2022-07-23T00:49:21;24.80;;;15.27;;
35646;SDS011;28680;45.642;13.756;2022-07-23T00:51:52;19.83;;;15.10;;
35646;SDS011;28680;45.642;13.756;2022-07-23T00:54:19;23.60;;;15.20;;
35646;SDS011;28680;45.642;13.756;2022-07-23T00:56:46;20.92;;;14.90;;
35646;SDS011;28680;45.642;13.756;2022-07-23T00:59:13;18.38;;;14.63;;
35646;SDS011;28680;45.642;13.756;2022-07-23T01:01:39;21.73;;;14.70;;
35646;SDS011;28680;45.642;13.756;2022-07-23T01:04:06;19.90;;;14.82;;
35646;SDS011;28680;45.642;13.756;2022-07-23T01:06:36;28.85;;;14.20;;
35646;SDS011;28680;45.642;13.756;2022-07-23T01:09:06;21.67;;;14.65;;
35646;SDS011;28680;45.642;13.756;2022-07-23T01:11:33;20.60;;;14.15;;
35646;SDS011;28680;45.642;13.756;2022-07-23T01:14:08;16.27;;;13.60;;
35646;SDS011;28680;45.642;13.756;2022-07-23T01:16:39;17.10;;;13.52;;
35646;SDS011;28680;45.642;13.756;2022-07-23T01:19:06;19.00;;;14.63;;
35646;SDS011;28680;45.642;13.756;2022-07-23T01:21:37;16.85;;;14.30;;
35646;SDS011;28680;45.642;13.756;2022-07-23T01:24:09;18.17;;;13.35;;
35646;SDS011;28680;45.642;13.756;2022-07-23T01:26:36;19.20;;;14.05;;
35646;SDS011;28680;45.642;13.756;2022-07-23T01:29:03;16.38;;;13.30;;
35646;SDS011;28680;45.642;13.756;2022-07-23T01:31:29;18.48;;;13.85;;
35646;SDS011;28680;45.642;13.756;2022-07-23T01:33:56;17.13;;;14.27;;
35646;SDS011;28680;45.642;13.756;2022-07-23T01:36:22;16.92;;;13.60;;
35646;SDS011;28680;45.642;13.756;2022-07-23T01:38:49;17.33;;;13.52;;
35646;SDS011;28680;45.642;13.756;2022-07-23T01:41:15;16.88;;;13.15;;
35646;SDS011;28680;45.642;13.756;2022-07-23T01:43:41;17.88;;;14.23;;
35646;SDS011;28680;45.642;13.756;2022-07-23T01:46:07;18.02;;;13.55;;
35646;SDS011;28680;45.642;13.756;2022-07-23T01:48:33;20.52;;;13.90;;
35646;SDS011;28680;45.642;13.756;2022-07-23T01:51:00;16.15;;;13.63;;
35646;SDS011;28680;45.642;13.756;2022-07-23T01:53:25;17.63;;;14.02;;
35646;SDS011;28680;45.642;13.756;2022-07-23T01:55:51;16.50;;;13.68;;
35646;SDS011;28680;45.642;13.756;2022-07-23T01:58:17;17.55;;;13.80;;
35646;SDS011;28680;45.642;13.756;2022-07-23T02:00:43;18.23;;;12.93;;
35646;SDS011;28680;45.642;13.756;2022-07-23T02:03:09;19.55;;;14.27;;
35646;SDS011;28680;45.642;13.756;2022-07-23T02:05:34;19.73;;;13.50;;
35646;SDS011;28680;45.642;13.756;2022-07-23T02:08:01;18.20;;;13.25;;
35646;SDS011;28680;45.642;13.756;2022-07-23T02:10:27;17.52;;;13.38;;
35646;SDS011;28680;45.642;13.756;2022-07-23T02:12:56;17.60;;;13.32;;
35646;SDS011;28680;45.642;13.756;2022-07-23T02:15:22;23.70;;;14.10;;
35646;SDS011;28680;45.642;13.756;2022-07-23T02:17:48;20.17;;;13.88;;
35646;SDS011;28680;45.642;13.756;2022-07-23T02:20:14;21.80;;;14.70;;
35646;SDS011;28680;45.642;13.756;2022-07-23T02:22:40;17.35;;;13.82;;
35646;SDS011;28680;45.642;13.756;2022-07-23T02:25:06;17.08;;;13.77;;
35646;SDS011;28680;45.642;13.756;2022-07-23T02:27:33;17.45;;;13.80;;
35646;SDS011;28680;45.642;13.756;2022-07-23T02:30:00;18.27;;;13.55;;
35646;SDS011;28680;45.642;13.756;2022-07-23T02:32:26;20.90;;;14.05;;
35646;SDS011;28680;45.642;13.756;2022-07-23T02:34:52;17.85;;;13.75;;
35646;SDS011;28680;45.642;13.756;2022-07-23T02:37:18;18.40;;;13.45;;
35646;SDS011;28680;45.642;13.756;2022-07-23T02:39:43;16.52;;;13.65;;
35646;SDS011;28680;45.642;13.756;2022-07-23T02:42:09;20.73;;;12.85;;
35646;SDS011;28680;45.642;13.756;2022-07-23T02:44:35;16.30;;;13.07;;
35646;SDS011;28680;45.642;13.756;2022-07-23T02:47:01;15.45;;;13.23;;
35646;SDS011;28680;45.642;13.756;2022-07-23T02:49:27;17.50;;;13.95;;
35646;SDS011;28680;45.642;13.756;2022-07-23T02:51:53;18.55;;;13.75;;
35646;SDS011;28680;45.642;13.756;2022-07-23T02:54:19;17.85;;;13.60;;
35646;SDS011;28680;45.642;13.756;2022-07-23T02:56:45;19.42;;;13.68;;
35646;SDS011;28680;45.642;13.756;2022-07-23T02:59:11;19.70;;;14.88;;
35646;SDS011;28680;45.642;13.756;2022-07-23T03:01:37;18.88;;;14.68;;
35646;SDS011;28680;45.642;13.756;2022-07-23T03:04:03;19.90;;;14.25;;
35646;SDS011;28680;45.642;13.756;2022-07-23T03:06:29;15.93;;;13.70;;
35646;SDS011;28680;45.642;13.756;2022-07-23T03:08:55;16.88;;;13.73;;
35646;SDS011;28680;45.642;13.756;2022-07-23T03:11:21;19.40;;;14.02;;
35646;SDS011;28680;45.642;13.756;2022-07-23T03:13:46;17.70;;;14.32;;
35646;SDS011;28680;45.642;13.756;2022-07-23T03:16:12;16.52;;;13.48;;
35646;SDS011;28680;45.642;13.756;2022-07-23T03:18:38;17.27;;;13.70;;
35646;SDS011;28680;45.642;13.756;2022-07-23T03:21:04;17.80;;;13.93;;
35646;SDS011;28680;45.642;13.756;2022-07-23T03:23:30;17.58;;;13.77;;
35646;SDS011;28680;45.642;13.756;2022-07-23T03:25:56;18.33;;;12.75;;
35646;SDS011;28680;45.642;13.756;2022-07-23T03:28:21;16.52;;;13.48;;
35646;SDS011;28680;45.642;13.756;2022-07-23T03:30:47;22.33;;;13.50;;
35646;SDS011;28680;45.642;13.756;2022-07-23T03:33:13;18.55;;;14.00;;
35646;SDS011;28680;45.642;13.756;2022-07-23T03:35:44;19.65;;;14.18;;
35646;SDS011;28680;45.642;13.756;2022-07-23T03:38:11;19.48;;;13.75;;
35646;SDS011;28680;45.642;13.756;2022-07-23T03:40:37;22.52;;;14.52;;
35646;SDS011;28680;45.642;13.756;2022-07-23T03:43:03;18.50;;;13.90;;
35646;SDS011;28680;45.642;13.756;2022-07-23T03:45:29;17.77;;;14.25;;
35646;SDS011;28680;45.642;13.756;2022-07-23T03:47:56;17.25;;;14.15;;
35646;SDS011;28680;45.642;13.756;2022-07-23T03:50:22;22.48;;;14.57;;
35646;SDS011;28680;45.642;13.756;2022-07-23T03:52:48;20.08;;;14.73;;
35646;SDS011;28680;45.642;13.756;2022-07-23T03:55:15;21.25;;;14.52;;
35646;SDS011;28680;45.642;13.756;2022-07-23T03:57:40;19.60;;;14.43;;
35646;SDS011;28680;45.642;13.756;2022-07-23T04:00:07;22.70;;;14.35;;
35646;SDS011;28680;45.642;13.756;2022-07-23T04:02:36;17.10;;;13.13;;
35646;SDS011;28680;45.642;13.756;2022-07-23T04:05:03;17.48;;;13.85;;
35646;SDS011;28680;45.642;13.756;2022-07-23T04:07:30;19.00;;;13.75;;
35646;SDS011;28680;45.642;13.756;2022-07-23T04:09:56;18.75;;;14.13;;
35646;SDS011;28680;45.642;13.756;2022-07-23T04:12:22;17.05;;;13.90;;
35646;SDS011;28680;45.642;13.756;2022-07-23T04:14:49;18.80;;;15.02;;
35646;SDS011;28680;45.642;13.756;2022-07-23T04:17:14;18.17;;;14.07;;
35646;SDS011;28680;45.642;13.756;2022-07-23T04:19:40;17.95;;;14.27;;
35646;SDS011;28680;45.642;13.756;2022-07-23T04:22:08;16.75;;;14.05;;
35646;SDS011;28680;45.642;13.756;2022-07-23T04:24:36;20.00;;;14.18;;
35646;SDS011;28680;45.642;13.756;2022-07-23T04:27:03;21.40;;;13.88;;
35646;SDS011;28680;45.642;13.756;2022-07-23T04:29:29;17.77;;;13.43;;
35646;SDS011;28680;45.642;13.756;2022-07-23T04:31:55;16.35;;;13.55;;
35646;SDS011;28680;45.642;13.756;2022-07-23T04:34:21;18.23;;;14.02;;
35646;SDS011;28680;45.642;13.756;2022-07-23T04:36:47;18.25;;;14.50;;
35646;SDS011;28680;45.642;13.756;2022-07-23T04:39:13;20.05;;;13.73;;
35646;SDS011;28680;45.642;13.756;2022-07-23T04:41:39;20.63;;;13.82;;
35646;SDS011;28680;45.642;13.756;2022-07-23T04:44:05;18.95;;;14.38;;
35646;SDS011;28680;45.642;13.756;2022-07-23T04:46:31;21.25;;;14.98;;
35646;SDS011;28680;45.642;13.756;2022-07-23T04:48:57;17.92;;;14.15;;
35646;SDS011;28680;45.642;13.756;2022-07-23T04:51:23;17.38;;;13.77;;
35646;SDS011;28680;45.642;13.756;2022-07-23T04:53:49;17.58;;;14.32;;
35646;SDS011;28680;45.642;13.756;2022-07-23T04:56:15;17.30;;;13.88;;
35646;SDS011;28680;45.642;13.756;2022-07-23T04:58:41;20.52;;;14.77;;
35646;SDS011;28680;45.642;13.756;2022-07-23T05:01:07;18.05;;;14.85;;
35646;SDS011;28680;45.642;13.756;2022-07-23T05:03:33;21.10;;;15.05;;
35646;SDS011;28680;45.642;13.756;2022-07-23T05:05:59;20.77;;;14.90;;
35646;SDS011;28680;45.642;13.756;2022-07-23T05:08:25;18.98;;;14.65;;
35646;SDS011;28680;45.642;13.756;2022-07-23T05:10:51;20.67;;;15.55;;
35646;SDS011;28680;45.642;13.756;2022-07-23T05:13:17;18.08;;;15.25;;
35646;SDS011;28680;45.642;13.756;2022-07-23T05:15:44;19.20;;;15.57;;
35646;SDS011;28680;45.642;13.756;2022-07-23T05:18:10;24.92;;;17.08;;
35646;SDS011;28680;45.642;13.756;2022-07-23T05:20:36;25.00;;;17.25;;
35646;SDS011;28680;45.642;13.756;2022-07-23T05:23:03;25.77;;;16.55;;
35646;SDS011;28680;45.642;13.756;2022-07-23T05:25:29;22.00;;;16.52;;
35646;SDS011;28680;45.642;13.756;2022-07-23T05:27:55;23.52;;;17.08;;
35646;SDS011;28680;45.642;13.756;2022-07-23T05:30:21;22.05;;;17.17;;
35646;SDS011;28680;45.642;13.756;2022-07-23T05:32:47;22.35;;;16.73;;
35646;SDS011;28680;45.642;13.756;2022-07-23T05:35:12;22.80;;;16.90;;
35646;SDS011;28680;45.642;13.756;2022-07-23T05:37:38;24.08;;;17.27;;
35646;SDS011;28680;45.642;13.756;2022-07-23T05:40:05;24.20;;;17.48;;
35646;SDS011;28680;45.642;13.756;2022-07-23T05:42:34;26.23;;;17.65;;
35646;SDS011;28680;45.642;13.756;2022-07-23T05:45:01;25.52;;;17.35;;
35646;SDS011;28680;45.642;13.756;2022-07-23T05:47:28;26.25;;;17.98;;
35646;SDS011;28680;45.642;13.756;2022-07-23T05:50:03;26.55;;;17.05;;
35646;SDS011;28680;45.642;13.756;2022-07-23T05:52:29;26.02;;;17.42;;
35646;SDS011;28680;45.642;13.756;2022-07-23T05:54:55;23.80;;;16.50;;
35646;SDS011;28680;45.642;13.756;2022-07-23T05:57:21;26.27;;;17.75;;
35646;SDS011;28680;45.642;13.756;2022-07-23T05:59:47;27.33;;;18.35;;
35646;SDS011;28680;45.642;13.756;2022-07-23T06:02:13;23.55;;;17.38;;
35646;SDS011;28680;45.642;13.756;2022-07-23T06:04:38;29.33;;;19.33;;
35646;SDS011;28680;45.642;13.756;2022-07-23T06:07:04;20.90;;;16.88;;
35646;SDS011;28680;45.642;13.756;2022-07-23T06:09:30;23.15;;;17.35;;
35646;SDS011;28680;45.642;13.756;2022-07-23T06:11:56;20.98;;;16.92;;
35646;SDS011;28680;45.642;13.756;2022-07-23T06:14:22;24.60;;;17.48;;
35646;SDS011;28680;45.642;13.756;2022-07-23T06:16:47;25.70;;;17.98;;
35646;SDS011;28680;45.642;13.756;2022-07-23T06:19:13;22.98;;;18.40;;
35646;SDS011;28680;45.642;13.756;2022-07-23T06:21:39;26.38;;;17.45;;
35646;SDS011;28680;45.642;13.756;2022-07-23T06:24:05;19.42;;;16.25;;
35646;SDS011;28680;45.642;13.756;2022-07-23T06:26:31;25.58;;;19.00;;
35646;SDS011;28680;45.642;13.756;2022-07-23T06:28:57;19.92;;;16.42;;
35646;SDS011;28680;45.642;13.756;2022-07-23T06:31:23;20.92;;;17.00;;
35646;SDS011;28680;45.642;13.756;2022-07-23T06:33:49;22.15;;;17.40;;
35646;SDS011;28680;45.642;13.756;2022-07-23T06:36:15;21.67;;;17.92;;
35646;SDS011;28680;45.642;13.756;2022-07-23T06:38:41;23.25;;;18.27;;
35646;SDS011;28680;45.642;13.756;2022-07-23T06:41:07;21.85;;;16.90;;
35646;SDS011;28680;45.642;13.756;2022-07-23T06:43:33;18.80;;;15.35;;
35646;SDS011;28680;45.642;13.756;2022-07-23T06:45:58;21.10;;;14.88;;
35646;SDS011;28680;45.642;13.756;2022-07-23T06:48:24;18.17;;;14.43;;
35646;SDS011;28680;45.642;13.756;2022-07-23T06:50:50;19.42;;;14.23;;
35646;SDS011;28680;45.642;13.756;2022-07-23T06:53:17;17.13;;;14.07;;
35646;SDS011;28680;45.642;13.756;2022-07-23T06:55:43;18.63;;;14.45;;
35646;SDS011;28680;45.642;13.756;2022-07-23T06:58:09;17.75;;;14.18;;
35646;SDS011;28680;45.642;13.756;2022-07-23T07:00:35;17.92;;;13.85;;
35646;SDS011;28680;45.642;13.756;2022-07-23T07:03:01;20.52;;;15.52;;
35646;SDS011;28680;45.642;13.756;2022-07-23T07:05:27;19.25;;;16.35;;
35646;SDS011;28680;45.642;13.756;2022-07-23T07:07:54;20.98;;;17.15;;
35646;SDS011;28680;45.642;13.756;2022-07-23T07:10:29;19.55;;;16.20;;
35646;SDS011;28680;45.642;13.756;2022-07-23T07:12:55;20.73;;;16.55;;
35646;SDS011;28680;45.642;13.756;2022-07-23T07:15:20;22.27;;;15.27;;
35646;SDS011;28680;45.642;13.756;2022-07-23T07:17:46;17.90;;;15.00;;
35646;SDS011;28680;45.642;13.756;2022-07-23T07:20:12;20.05;;;15.35;;
35646;SDS011;28680;45.642;13.756;2022-07-23T07:22:38;17.40;;;14.70;;
35646;SDS011;28680;45.642;13.756;2022-07-23T07:25:05;19.08;;;14.95;;
35646;SDS011;28680;45.642;13.756;2022-07-23T07:27:32;17.25;;;14.38;;
35646;SDS011;28680;45.642;13.756;2022-07-23T07:29:58;24.75;;;15.18;;
35646;SDS011;28680;45.642;13.756;2022-07-23T07:32:24;16.63;;;13.90;;
35646;SDS011;28680;45.642;13.756;2022-07-23T07:34:50;19.00;;;13.80;;
35646;SDS011;28680;45.642;13.756;2022-07-23T07:37:16;17.27;;;14.20;;
35646;SDS011;28680;45.642;13.756;2022-07-23T07:39:45;16.67;;;14.20;;
35646;SDS011;28680;45.642;13.756;2022-07-23T07:42:23;20.00;;;15.52;;
35646;SDS011;28680;45.642;13.756;2022-07-23T07:44:48;18.55;;;13.60;;
35646;SDS011;28680;45.642;13.756;2022-07-23T07:47:17;21.73;;;14.35;;
35646;SDS011;28680;45.642;13.756;2022-07-23T07:52:40;20.45;;;15.98;;
35646;SDS011;28680;45.642;13.756;2022-07-23T07:55:19;20.95;;;15.48;;
35646;SDS011;28680;45.642;13.756;2022-07-23T08:01:06;20.25;;;15.13;;
35646;SDS011;28680;45.642;13.756;2022-07-23T08:03:42;24.90;;;18.90;;
35646;SDS011;28680;45.642;13.756;2022-07-23T08:06:08;22.85;;;15.30;;
35646;SDS011;28680;45.642;13.756;2022-07-23T08:08:33;19.85;;;15.10;;
35646;SDS011;28680;45.642;13.756;2022-07-23T08:10:59;17.58;;;14.18;;
35646;SDS011;28680;45.642;13.756;2022-07-23T08:13:25;21.90;;;15.55;;
35646;SDS011;28680;45.642;13.756;2022-07-23T08:15:51;16.95;;;14.18;;
35646;SDS011;28680;45.642;13.756;2022-07-23T08:18:18;18.58;;;15.57;;
35646;SDS011;28680;45.642;13.756;2022-07-23T08:20:44;17.83;;;14.65;;
35646;SDS011;28680;45.642;13.756;2022-07-23T08:23:12;18.73;;;14.60;;
35646;SDS011;28680;45.642;13.756;2022-07-23T08:25:38;18.75;;;14.15;;
35646;SDS011;28680;45.642;13.756;2022-07-23T08:28:12;19.55;;;15.32;;
35646;SDS011;28680;45.642;13.756;2022-07-23T08:30:40;17.10;;;14.50;;
35646;SDS011;28680;45.642;13.756;2022-07-23T08:33:09;19.50;;;15.63;;
35646;SDS011;28680;45.642;13.756;2022-07-23T08:35:41;22.48;;;16.20;;
35646;SDS011;28680;45.642;13.756;2022-07-23T08:38:14;20.92;;;17.13;;
35646;SDS011;28680;45.642;13.756;2022-07-23T08:40:46;21.40;;;16.13;;
35646;SDS011;28680;45.642;13.756;2022-07-23T08:43:16;19.75;;;15.85;;
35646;SDS011;28680;45.642;13.756;2022-07-23T08:45:48;22.52;;;16.02;;
35646;SDS011;28680;45.642;13.756;2022-07-23T08:48:20;21.83;;;16.00;;
35646;SDS011;28680;45.642;13.756;2022-07-23T08:50:52;21.27;;;15.70;;
35646;SDS011;28680;45.642;13.756;2022-07-23T08:53:21;20.55;;;15.57;;
35646;SDS011;28680;45.642;13.756;2022-07-23T08:55:50;19.48;;;15.35;;
35646;SDS011;28680;45.642;13.756;2022-07-23T08:58:22;20.92;;;15.60;;
35646;SDS011;28680;45.642;13.756;2022-07-23T09:00:49;20.13;;;15.00;;
35646;SDS011;28680;45.642;13.756;2022-07-23T09:03:19;20.60;;;15.07;;
35646;SDS011;28680;45.642;13.756;2022-07-23T09:05:49;19.25;;;14.80;;
35646;SDS011;28680;45.642;13.756;2022-07-23T09:08:20;22.92;;;15.45;;
35646;SDS011;28680;45.642;13.756;2022-07-23T09:10:53;18.58;;;13.77;;
35646;SDS011;28680;45.642;13.756;2022-07-23T09:16:18;16.98;;;13.50;;
35646;SDS011;28680;45.642;13.756;2022-07-23T09:19:00;16.70;;;12.65;;
35646;SDS011;28680;45.642;13.756;2022-07-23T09:21:34;16.27;;;13.25;;
35646;SDS011;28680;45.642;13.756;2022-07-23T09:31:44;17.48;;;13.25;;
35646;SDS011;28680;45.642;13.756;2022-07-23T09:34:36;15.27;;;12.02;;
35646;SDS011;28680;45.642;13.756;2022-07-23T09:37:08;13.48;;;10.82;;
35646;SDS011;28680;45.642;13.756;2022-07-23T09:39:43;17.75;;;12.80;;
35646;SDS011;28680;45.642;13.756;2022-07-23T09:42:19;18.13;;;12.95;;
35646;SDS011;28680;45.642;13.756;2022-07-23T09:44:51;17.23;;;12.73;;
35646;SDS011;28680;45.642;13.756;2022-07-23T09:47:23;13.15;;;10.70;;
35646;SDS011;28680;45.642;13.756;2022-07-23T09:52:46;14.10;;;11.07;;
35646;SDS011;28680;45.642;13.756;2022-07-23T09:55:15;11.93;;;9.95;;
35646;SDS011;28680;45.642;13.756;2022-07-23T09:57:43;12.60;;;10.23;;
35646;SDS011;28680;45.642;13.756;2022-07-23T10:00:12;12.40;;;10.38;;
35646;SDS011;28680;45.642;13.756;2022-07-23T10:02:38;18.95;;;10.13;;
35646;SDS011;28680;45.642;13.756;2022-07-23T10:05:05;16.95;;;9.77;;
35646;SDS011;28680;45.642;13.756;2022-07-23T10:07:33;14.05;;;10.52;;
35646;SDS011;28680;45.642;13.756;2022-07-23T10:10:04;13.52;;;9.07;;
35646;SDS011;28680;45.642;13.756;2022-07-23T10:12:31;10.45;;;8.77;;
35646;SDS011;28680;45.642;13.756;2022-07-23T10:15:20;12.30;;;9.52;;
35646;SDS011;28680;45.642;13.756;2022-07-23T10:17:47;12.98;;;9.40;;
35646;SDS011;28680;45.642;13.756;2022-07-23T10:20:14;12.55;;;9.65;;
35646;SDS011;28680;45.642;13.756;2022-07-23T10:22:42;11.10;;;9.20;;
35646;SDS011;28680;45.642;13.756;2022-07-23T10:32:02;17.00;;;10.23;;
35646;SDS011;28680;45.642;13.756;2022-07-23T10:37:51;13.88;;;10.80;;
35646;SDS011;28680;45.642;13.756;2022-07-23T10:40:26;13.27;;;10.05;;
35646;SDS011;28680;45.642;13.756;2022-07-23T10:42:58;12.95;;;9.77;;
35646;SDS011;28680;45.642;13.756;2022-07-23T10:48:20;14.65;;;9.85;;
35646;SDS011;28680;45.642;13.756;2022-07-23T10:51:08;13.77;;;10.20;;
35646;SDS011;28680;45.642;13.756;2022-07-23T10:59:19;12.65;;;10.02;;
35646;SDS011;28680;45.642;13.756;2022-07-23T11:01:45;12.00;;;10.60;;
35646;SDS011;28680;45.642;13.756;2022-07-23T11:04:11;16.75;;;13.25;;
35646;SDS011;28680;45.642;13.756;2022-07-23T11:17:26;15.02;;;10.80;;
35646;SDS011;28680;45.642;13.756;2022-07-23T11:22:35;14.00;;;10.82;;
35646;SDS011;28680;45.642;13.756;2022-07-23T11:25:08;13.40;;;10.67;;
35646;SDS011;28680;45.642;13.756;2022-07-23T11:30:10;17.38;;;12.57;;
35646;SDS011;28680;45.642;13.756;2022-07-23T11:35:35;17.88;;;13.00;;
35646;SDS011;28680;45.642;13.756;2022-07-23T11:38:07;18.00;;;14.38;;
35646;SDS011;28680;45.642;13.756;2022-07-23T11:40:48;14.73;;;11.00;;
35646;SDS011;28680;45.642;13.756;2022-07-23T11:43:17;15.38;;;12.05;;
35646;SDS011;28680;45.642;13.756;2022-07-23T11:48:17;17.42;;;14.25;;
35646;SDS011;28680;45.642;13.756;2022-07-23T11:50:44;20.58;;;15.32;;
35646;SDS011;28680;45.642;13.756;2022-07-23T11:53:10;20.08;;;14.77;;
35646;SDS011;28680;45.642;13.756;2022-07-23T11:55:37;17.20;;;14.52;;
35646;SDS011;28680;45.642;13.756;2022-07-23T11:58:03;17.42;;;12.82;;
35646;SDS011;28680;45.642;13.756;2022-07-23T12:00:31;20.08;;;14.60;;
35646;SDS011;28680;45.642;13.756;2022-07-23T12:02:58;19.52;;;15.13;;
35646;SDS011;28680;45.642;13.756;2022-07-23T12:05:33;20.52;;;15.52;;
35646;SDS011;28680;45.642;13.756;2022-07-23T12:08:08;17.42;;;14.40;;
35646;SDS011;28680;45.642;13.756;2022-07-23T12:10:37;15.88;;;13.13;;
35646;SDS011;28680;45.642;13.756;2022-07-23T12:13:10;15.27;;;13.38;;
35646;SDS011;28680;45.642;13.756;2022-07-23T12:15:43;15.48;;;11.73;;
35646;SDS011;28680;45.642;13.756;2022-07-23T12:18:19;18.65;;;12.32;;
35646;SDS011;28680;45.642;13.756;2022-07-23T12:20:51;15.32;;;12.00;;
35646;SDS011;28680;45.642;13.756;2022-07-23T12:23:21;17.50;;;12.57;;
35646;SDS011;28680;45.642;13.756;2022-07-23T12:25:50;15.43;;;12.85;;
35646;SDS011;28680;45.642;13.756;2022-07-23T12:28:18;16.70;;;13.52;;
35646;SDS011;28680;45.642;13.756;2022-07-23T12:30:48;13.63;;;11.57;;
35646;SDS011;28680;45.642;13.756;2022-07-23T12:33:29;15.80;;;12.07;;
35646;SDS011;28680;45.642;13.756;2022-07-23T12:35:56;14.45;;;11.32;;
35646;SDS011;28680;45.642;13.756;2022-07-23T12:38:25;11.98;;;10.68;;
35646;SDS011;28680;45.642;13.756;2022-07-23T12:40:56;10.77;;;8.60;;
35646;SDS011;28680;45.642;13.756;2022-07-23T12:43:31;12.98;;;10.20;;
35646;SDS011;28680;45.642;13.756;2022-07-23T12:51:19;12.38;;;10.32;;
35646;SDS011;28680;45.642;13.756;2022-07-23T12:54:05;11.25;;;9.38;;
35646;SDS011;28680;45.642;13.756;2022-07-23T12:56:39;19.95;;;9.95;;
35646;SDS011;28680;45.642;13.756;2022-07-23T12:59:10;11.82;;;8.73;;
35646;SDS011;28680;45.642;13.756;2022-07-23T13:01:45;11.07;;;9.45;;
35646;SDS011;28680;45.642;13.756;2022-07-23T13:04:24;13.40;;;9.90;;
35646;SDS011;28680;45.642;13.756;2022-07-23T13:06:51;11.55;;;8.63;;
35646;SDS011;28680;45.642;13.756;2022-07-23T13:09:21;10.43;;;9.35;;
35646;SDS011;28680;45.642;13.756;2022-07-23T13:11:55;12.13;;;10.40;;
35646;SDS011;28680;45.642;13.756;2022-07-23T13:14:22;10.35;;;7.80;;
35646;SDS011;28680;45.642;13.756;2022-07-23T13:16:51;8.77;;;7.82;;
35646;SDS011;28680;45.642;13.756;2022-07-23T13:19:18;10.65;;;7.63;;
35646;SDS011;28680;45.642;13.756;2022-07-23T13:21:47;10.55;;;8.68;;
35646;SDS011;28680;45.642;13.756;2022-07-23T13:24:14;9.32;;;7.90;;
35646;SDS011;28680;45.642;13.756;2022-07-23T13:26:40;10.65;;;7.70;;
35646;SDS011;28680;45.642;13.756;2022-07-23T13:29:06;7.90;;;5.97;;
35646;SDS011;28680;45.642;13.756;2022-07-23T13:31:32;8.88;;;7.53;;
35646;SDS011;28680;45.642;13.756;2022-07-23T13:34:00;9.23;;;5.82;;
35646;SDS011;28680;45.642;13.756;2022-07-23T13:36:26;8.55;;;7.05;;
35646;SDS011;28680;45.642;13.756;2022-07-23T13:38:52;11.45;;;8.98;;
35646;SDS011;28680;45.642;13.756;2022-07-23T13:41:18;8.50;;;7.20;;
35646;SDS011;28680;45.642;13.756;2022-07-23T13:43:44;9.80;;;8.45;;
35646;SDS011;28680;45.642;13.756;2022-07-23T13:46:10;7.38;;;5.78;;
35646;SDS011;28680;45.642;13.756;2022-07-23T13:48:36;8.40;;;6.18;;
35646;SDS011;28680;45.642;13.756;2022-07-23T13:51:02;10.65;;;8.93;;
35646;SDS011;28680;45.642;13.756;2022-07-23T13:53:28;10.68;;;8.18;;
35646;SDS011;28680;45.642;13.756;2022-07-23T13:55:54;9.75;;;6.78;;
35646;SDS011;28680;45.642;13.756;2022-07-23T13:58:20;8.57;;;6.32;;
35646;SDS011;28680;45.642;13.756;2022-07-23T14:00:50;7.68;;;6.90;;
35646;SDS011;28680;45.642;13.756;2022-07-23T14:03:18;9.38;;;6.10;;
35646;SDS011;28680;45.642;13.756;2022-07-23T14:05:48;9.57;;;8.15;;
35646;SDS011;28680;45.642;13.756;2022-07-23T14:08:15;10.00;;;8.02;;
35646;SDS011;28680;45.642;13.756;2022-07-23T14:10:41;8.55;;;6.88;;
35646;SDS011;28680;45.642;13.756;2022-07-23T14:13:07;8.25;;;7.25;;
35646;SDS011;28680;45.642;13.756;2022-07-23T14:15:32;8.07;;;5.45;;
35646;SDS011;28680;45.642;13.756;2022-07-23T14:17:59;8.55;;;6.10;;
35646;SDS011;28680;45.642;13.756;2022-07-23T14:20:25;8.27;;;4.97;;
35646;SDS011;28680;45.642;13.756;2022-07-23T14:22:51;6.25;;;4.60;;
35646;SDS011;28680;45.642;13.756;2022-07-23T14:25:17;7.40;;;4.57;;
35646;SDS011;28680;45.642;13.756;2022-07-23T14:27:43;5.78;;;4.88;;
35646;SDS011;28680;45.642;13.756;2022-07-23T14:30:10;5.85;;;4.90;;
35646;SDS011;28680;45.642;13.756;2022-07-23T14:32:38;7.28;;;6.35;;
35646;SDS011;28680;45.642;13.756;2022-07-23T14:35:04;8.48;;;6.97;;
35646;SDS011;28680;45.642;13.756;2022-07-23T14:37:31;9.20;;;6.93;;
35646;SDS011;28680;45.642;13.756;2022-07-23T14:39:58;8.07;;;7.20;;
35646;SDS011;28680;45.642;13.756;2022-07-23T14:42:24;7.97;;;6.80;;
35646;SDS011;28680;45.642;13.756;2022-07-23T14:44:50;9.80;;;6.75;;
35646;SDS011;28680;45.642;13.756;2022-07-23T14:47:16;9.38;;;6.68;;
35646;SDS011;28680;45.642;13.756;2022-07-23T14:49:43;9.27;;;6.38;;
35646;SDS011;28680;45.642;13.756;2022-07-23T14:52:08;7.35;;;6.22;;
35646;SDS011;28680;45.642;13.756;2022-07-23T14:54:34;7.75;;;5.90;;
35646;SDS011;28680;45.642;13.756;2022-07-23T14:57:01;6.97;;;4.50;;
35646;SDS011;28680;45.642;13.756;2022-07-23T14:59:28;8.50;;;5.13;;
35646;SDS011;28680;45.642;13.756;2022-07-23T15:01:55;7.57;;;4.90;;
35646;SDS011;28680;45.642;13.756;2022-07-23T15:04:23;10.10;;;7.32;;
35646;SDS011;28680;45.642;13.756;2022-07-23T15:06:49;9.75;;;6.93;;
35646;SDS011;28680;45.642;13.756;2022-07-23T15:09:16;8.85;;;7.15;;
35646;SDS011;28680;45.642;13.756;2022-07-23T15:11:41;6.32;;;4.10;;
35646;SDS011;28680;45.642;13.756;2022-07-23T15:14:08;4.88;;;4.18;;
35646;SDS011;28680;45.642;13.756;2022-07-23T15:16:35;8.20;;;6.78;;
35646;SDS011;28680;45.642;13.756;2022-07-23T15:19:01;5.53;;;4.95;;
35646;SDS011;28680;45.642;13.756;2022-07-23T15:21:28;8.80;;;5.60;;